Time;durP1;ratioP1;P1;durP2;ratioP2;P2;SDS_P1;SDS_P2;PMS_P1;PMS_P2;Temp;Humidity;BMP_temperature;BMP_pressure;BME280_temperature;BME280_humidity;BME280_pressure;Samples;Min_cycle;Max_cycle;Signal;HPM_P1;HPM_P2
2021/04/29 00:00:22;;;;;;;;;;;21.50;32.60;;;;;;463109;257;953;-72
2021/04/29 00:02:23;;;;;;;;;;;21.60;32.60;;;;;;467107;255;1058;-72
2021/04/29 00:04:24;;;;;;;;;;;21.60;32.50;;;;;;459058;258;2193;-72
2021/04/29 00:06:26;;;;;;;;;;;21.60;32.60;;;;;;463424;252;976;-72
2021/04/29 00:08:27;;;;;;;;;;;21.70;32.40;;;;;;459101;260;1017;-72
2021/04/29 00:10:28;;;;;;;;;;;21.70;32.50;;;;;;463111;257;1334;-72
2021/04/29 00:12:29;;;;;;;;;;;21.60;32.60;;;;;;467019;255;968;-72
2021/04/29 00:14:31;;;;;;;;;;;21.60;32.60;;;;;;463389;255;1061;-72
2021/04/29 00:16:32;;;;;;;;;;;21.60;32.60;;;;;;458866;260;1219;-72
2021/04/29 00:18:33;;;;;;;;;;;21.60;32.70;;;;;;463033;257;1103;-72
2021/04/29 00:20:35;;;;;;;;;;;21.60;32.60;;;;;;467074;255;1163;-72
2021/04/29 00:22:36;;;;;;;;;;;21.60;32.70;;;;;;463333;256;1140;-73
2021/04/29 00:24:37;;;;;;;;;;;21.60;32.70;;;;;;459074;259;2186;-73
2021/04/29 00:26:39;;;;;;;;;;;21.60;32.80;;;;;;463092;257;1301;-72
2021/04/29 00:28:40;;;;;;;;;;;21.70;32.90;;;;;;467117;255;1062;-73
2021/04/29 00:30:41;;;;;;;;;;;21.60;33.00;;;;;;459113;259;1302;-72
2021/04/29 00:32:42;;;;;;;;;;;21.50;33.10;;;;;;463361;256;1175;-73
2021/04/29 00:34:44;;;;;;;;;;;21.50;33.20;;;;;;459033;255;967;-72
2021/04/29 00:36:45;;;;;;;;;;;21.60;33.30;;;;;;463052;254;1220;-72
2021/04/29 00:38:46;;;;;;;;;;;21.60;33.40;;;;;;467258;255;1095;-73
2021/04/29 00:40:47;;;;;;;;;;;21.70;33.40;;;;;;463368;255;1295;-72
2021/04/29 00:42:49;;;;;;;;;;;21.70;33.30;;;;;;459020;259;2201;-72
2021/04/29 00:44:50;;;;;;;;;;;21.80;33.30;;;;;;463052;257;1110;-72
2021/04/29 00:46:51;;;;;;;;;;;21.80;33.30;;;;;;467018;255;1212;-73
2021/04/29 00:48:53;;;;;;;;;;;21.80;33.40;;;;;;463371;257;1038;-73
2021/04/29 00:50:54;;;;;;;;;;;21.90;33.50;;;;;;459009;258;1394;-72
2021/04/29 00:52:56;;;;;;;;;;;21.90;33.60;;;;;;463017;257;1082;-72
2021/04/29 00:54:56;;;;;;;;;;;21.80;33.70;;;;;;467256;255;1384;-73
2021/04/29 00:56:58;;;;;;;;;;;21.80;33.80;;;;;;463320;253;1199;-72
2021/04/29 00:58:59;;;;;;;;;;;21.80;33.80;;;;;;459117;259;984;-72
2021/04/29 01:01:00;;;;;;;;;;;21.80;33.90;;;;;;463091;257;972;-72
2021/04/29 01:03:02;;;;;;;;;;;21.80;34.00;;;;;;467144;255;2153;-72
2021/04/29 01:05:03;;;;;;;;;;;21.80;34.00;;;;;;459173;258;1013;-73
2021/04/29 01:07:04;;;;;;;;;;;21.90;34.10;;;;;;463022;257;1236;-72
2021/04/29 01:09:05;;;;;;;;;;;21.90;34.20;;;;;;467111;255;983;-72
2021/04/29 01:11:07;;;;;;;;;;;21.90;34.20;;;;;;458952;259;1122;-72
2021/04/29 01:13:08;;;;;;;;;;;21.80;34.30;;;;;;463016;257;1128;-72
2021/04/29 01:15:09;;;;;;;;;;;21.80;34.30;;;;;;467148;255;1104;-72
2021/04/29 01:17:11;;;;;;;;;;;21.90;34.40;;;;;;463300;257;1154;-72
2021/04/29 01:19:12;;;;;;;;;;;21.90;34.40;;;;;;459055;259;1373;-72
2021/04/29 01:21:14;;;;;;;;;;;21.90;34.50;;;;;;463014;257;1144;-72
2021/04/29 01:23:14;;;;;;;;;;;21.90;34.50;;;;;;467005;255;2209;-72
2021/04/29 01:25:16;;;;;;;;;;;21.80;34.50;;;;;;463439;257;1120;-72
2021/04/29 01:27:17;;;;;;;;;;;22.00;34.60;;;;;;463071;257;1228;-72
2021/04/29 01:29:20;;;;;;;;;;;21.90;34.60;;;;;;467142;255;1095;-72
2021/04/29 01:31:20;;;;;;;;;;;21.90;34.70;;;;;;463323;254;1378;-72
2021/04/29 01:33:21;;;;;;;;;;;21.90;34.80;;;;;;459019;260;1101;-72
2021/04/29 01:35:23;;;;;;;;;;;21.90;34.90;;;;;;463046;257;975;-72
2021/04/29 01:37:24;;;;;;;;;;;21.90;34.90;;;;;;467053;252;1189;-72
2021/04/29 01:39:25;;;;;;;;;;;21.90;35.00;;;;;;463410;254;945;-72
2021/04/29 01:41:26;;;;;;;;;;;21.90;35.10;;;;;;458933;260;1222;-73
2021/04/29 01:43:28;;;;;;;;;;;21.90;35.20;;;;;;463049;257;2204;-72
2021/04/29 01:45:29;;;;;;;;;;;21.90;35.20;;;;;;467166;255;1214;-73
2021/04/29 01:47:31;;;;;;;;;;;21.90;35.30;;;;;;459028;258;1293;-72
2021/04/29 01:49:32;;;;;;;;;;;21.90;35.50;;;;;;463148;257;1424;-72
2021/04/29 01:51:33;;;;;;;;;;;21.90;35.60;;;;;;467083;255;1237;-72
2021/04/29 01:53:34;;;;;;;;;;;21.90;35.70;;;;;;459134;258;1227;-72
2021/04/29 01:55:35;;;;;;;;;;;21.90;35.80;;;;;;463113;257;968;-72
2021/04/29 01:57:37;;;;;;;;;;;21.90;35.90;;;;;;467098;255;1232;-72
2021/04/29 01:59:38;;;;;;;;;;;21.80;36.00;;;;;;459076;258;1340;-72
2021/04/29 02:01:39;;;;;;;;;;;21.80;36.00;;;;;;463023;257;1301;-72
2021/04/29 02:03:41;;;;;;;;;;;21.80;36.20;;;;;;467082;255;2201;-72
2021/04/29 02:05:42;;;;;;;;;;;21.80;36.10;;;;;;458953;259;968;-72
2021/04/29 02:07:43;;;;;;;;;;;21.80;36.30;;;;;;463078;254;1103;-72
2021/04/29 02:09:44;;;;;;;;;;;21.90;36.40;;;;;;467121;255;1020;-73
2021/04/29 02:11:46;;;;;;;;;;;21.80;36.40;;;;;;458961;258;1203;-72
2021/04/29 02:13:47;;;;;;;;;;;21.90;36.50;;;;;;463100;257;970;-73
2021/04/29 02:15:48;;;;;;;;;;;21.80;36.50;;;;;;467086;255;1236;-72
2021/04/29 02:17:49;;;;;;;;;;;21.90;36.60;;;;;;459017;258;997;-72
2021/04/29 02:19:51;;;;;;;;;;;21.90;36.60;;;;;;463187;257;953;-72
2021/04/29 02:21:52;;;;;;;;;;;21.90;36.70;;;;;;467123;255;1204;-72
2021/04/29 02:23:53;;;;;;;;;;;21.90;36.70;;;;;;463419;253;2207;-72
2021/04/29 02:25:55;;;;;;;;;;;21.90;36.80;;;;;;459007;259;1058;-72
2021/04/29 02:27:56;;;;;;;;;;;21.90;36.90;;;;;;463009;257;1228;-73
2021/04/29 02:29:57;;;;;;;;;;;21.80;36.90;;;;;;467125;255;1232;-72
2021/04/29 02:31:58;;;;;;;;;;;21.80;37.10;;;;;;463307;257;1214;-72
2021/04/29 02:34:00;;;;;;;;;;;21.70;37.20;;;;;;458961;260;1101;-72
2021/04/29 02:36:01;;;;;;;;;;;21.70;37.30;;;;;;462981;257;1112;-73
2021/04/29 02:38:02;;;;;;;;;;;21.60;37.50;;;;;;467147;255;1045;-72
2021/04/29 02:40:04;;;;;;;;;;;21.60;37.70;;;;;;463409;255;1026;-72
2021/04/29 02:42:05;;;;;;;;;;;21.50;37.90;;;;;;458996;259;1355;-73
2021/04/29 02:44:06;;;;;;;;;;;21.50;38.00;;;;;;463089;257;2219;-73
2021/04/29 02:46:07;;;;;;;;;;;21.50;38.10;;;;;;467126;255;1236;-72
2021/04/29 02:48:09;;;;;;;;;;;21.40;38.10;;;;;;463153;257;1138;-72
2021/04/29 02:50:10;;;;;;;;;;;21.40;38.30;;;;;;467183;255;957;-72
2021/04/29 02:52:11;;;;;;;;;;;21.40;38.30;;;;;;458902;256;1176;-72
2021/04/29 02:54:13;;;;;;;;;;;21.30;38.50;;;;;;463041;257;1030;-73
2021/04/29 02:56:14;;;;;;;;;;;21.30;38.60;;;;;;466937;251;1202;-72
2021/04/29 02:58:16;;;;;;;;;;;21.30;38.70;;;;;;463351;257;1191;-72
2021/04/29 03:00:17;;;;;;;;;;;21.30;38.90;;;;;;459033;260;1406;-72
2021/04/29 03:02:18;;;;;;;;;;;21.30;38.90;;;;;;462996;257;1183;-73
2021/04/29 03:04:19;;;;;;;;;;;21.20;38.90;;;;;;467103;255;2197;-72
2021/04/29 03:06:22;;;;;;;;;;;21.30;39.00;;;;;;459079;259;1111;-72
2021/04/29 03:08:23;;;;;;;;;;;21.30;38.80;;;;;;463169;257;1372;-72
2021/04/29 03:10:24;;;;;;;;;;;21.30;38.90;;;;;;467152;255;1021;-72
2021/04/29 03:12:26;;;;;;;;;;;21.30;38.80;;;;;;463390;257;1224;-72
2021/04/29 03:14:27;;;;;;;;;;;21.30;39.00;;;;;;459072;260;1244;-72
2021/04/29 03:16:28;;;;;;;;;;;21.30;39.10;;;;;;463487;257;1143;-72
2021/04/29 03:18:29;;;;;;;;;;;21.20;39.10;;;;;;459067;260;948;-72
2021/04/29 03:20:30;;;;;;;;;;;21.10;39.20;;;;;;463033;250;1452;-72
2021/04/29 03:22:32;;;;;;;;;;;21.20;39.20;;;;;;467010;251;1223;-72
2021/04/29 03:24:33;;;;;;;;;;;21.20;39.10;;;;;;463044;257;2152;-72
2021/04/29 03:26:34;;;;;;;;;;;21.20;39.30;;;;;;467041;251;1241;-73
2021/04/29 03:28:35;;;;;;;;;;;21.20;39.30;;;;;;458994;258;1218;-72
2021/04/29 03:30:37;;;;;;;;;;;21.10;39.20;;;;;;463066;257;1119;-72
2021/04/29 03:32:38;;;;;;;;;;;21.20;39.20;;;;;;467154;255;1067;-72
2021/04/29 03:34:39;;;;;;;;;;;21.20;39.20;;;;;;459123;253;975;-72
2021/04/29 03:36:41;;;;;;;;;;;21.20;39.30;;;;;;463044;257;1348;-72
2021/04/29 03:38:42;;;;;;;;;;;21.30;39.10;;;;;;467190;255;989;-72
2021/04/29 03:40:43;;;;;;;;;;;21.20;39.30;;;;;;459000;256;1318;-72
2021/04/29 03:42:45;;;;;;;;;;;21.20;39.30;;;;;;463044;253;1207;-72
2021/04/29 03:44:46;;;;;;;;;;;21.20;39.30;;;;;;467173;255;2212;-72
2021/04/29 03:46:47;;;;;;;;;;;21.20;39.30;;;;;;458954;258;1254;-72
2021/04/29 03:48:49;;;;;;;;;;;21.20;39.40;;;;;;462981;257;1010;-72
2021/04/29 03:50:50;;;;;;;;;;;21.20;39.30;;;;;;467004;252;1202;-73
2021/04/29 03:52:51;;;;;;;;;;;21.00;39.70;;;;;;458875;258;1147;-72
2021/04/29 03:54:52;;;;;;;;;;;20.90;39.80;;;;;;463046;257;1133;-72
2021/04/29 03:56:54;;;;;;;;;;;20.80;39.90;;;;;;467094;255;1237;-72
2021/04/29 03:58:55;;;;;;;;;;;20.80;40.00;;;;;;459098;259;1207;-72
2021/04/29 04:00:56;;;;;;;;;;;20.80;40.10;;;;;;463427;257;963;-72
2021/04/29 04:02:58;;;;;;;;;;;20.80;40.00;;;;;;459069;259;1262;-72
2021/04/29 04:04:59;;;;;;;;;;;20.80;40.00;;;;;;463069;257;2203;-72
2021/04/29 04:07:00;;;;;;;;;;;20.90;40.00;;;;;;467284;252;1225;-72
2021/04/29 04:09:01;;;;;;;;;;;20.90;39.80;;;;;;463616;257;983;-72
2021/04/29 04:11:03;;;;;;;;;;;21.00;39.90;;;;;;459142;260;1452;-72
2021/04/29 04:13:04;;;;;;;;;;;20.90;39.80;;;;;;463150;257;1240;-72
2021/04/29 04:15:05;;;;;;;;;;;21.00;39.80;;;;;;467229;255;1071;-72
2021/04/29 04:17:07;;;;;;;;;;;21.00;39.70;;;;;;463357;257;1091;-72
2021/04/29 04:19:08;;;;;;;;;;;21.00;39.70;;;;;;459118;257;1158;-72
2021/04/29 04:21:09;;;;;;;;;;;21.00;39.80;;;;;;463359;255;1154;-72
2021/04/29 04:23:10;;;;;;;;;;;21.00;39.90;;;;;;459001;257;1097;-72
2021/04/29 04:25:12;;;;;;;;;;;21.00;39.90;;;;;;463111;257;2186;-72
2021/04/29 04:27:13;;;;;;;;;;;21.00;40.00;;;;;;467015;255;1205;-72
2021/04/29 04:29:14;;;;;;;;;;;20.90;40.20;;;;;;459123;259;1331;-72
2021/04/29 04:31:16;;;;;;;;;;;20.90;40.20;;;;;;463054;257;1273;-72
2021/04/29 04:33:17;;;;;;;;;;;20.90;40.10;;;;;;467223;255;1071;-72
2021/04/29 04:35:18;;;;;;;;;;;20.90;40.10;;;;;;463484;255;1007;-72
2021/04/29 04:37:19;;;;;;;;;;;21.00;40.20;;;;;;459010;259;1290;-72
2021/04/29 04:39:21;;;;;;;;;;;20.90;40.20;;;;;;463117;257;989;-72
2021/04/29 04:41:22;;;;;;;;;;;20.90;40.30;;;;;;467000;255;1081;-72
2021/04/29 04:43:23;;;;;;;;;;;20.90;40.50;;;;;;463281;257;1227;-72
2021/04/29 04:45:25;;;;;;;;;;;20.80;40.50;;;;;;458970;259;2253;-72
2021/04/29 04:47:26;;;;;;;;;;;20.80;40.50;;;;;;462886;257;1049;-72
2021/04/29 04:49:27;;;;;;;;;;;20.90;40.50;;;;;;467048;255;993;-72
2021/04/29 04:51:29;;;;;;;;;;;20.80;40.50;;;;;;463240;255;1119;-72
2021/04/29 04:53:30;;;;;;;;;;;20.80;40.50;;;;;;458918;259;1283;-72
2021/04/29 04:55:31;;;;;;;;;;;20.80;40.60;;;;;;463027;257;1267;-72
2021/04/29 04:57:32;;;;;;;;;;;20.90;40.70;;;;;;467086;255;951;-72
2021/04/29 04:59:34;;;;;;;;;;;20.90;40.60;;;;;;458969;259;1211;-72
2021/04/29 05:01:35;;;;;;;;;;;20.90;40.50;;;;;;462915;257;1252;-72
2021/04/29 05:03:36;;;;;;;;;;;20.90;40.60;;;;;;467062;255;972;-72
2021/04/29 05:05:37;;;;;;;;;;;20.80;40.80;;;;;;462879;257;2203;-72
2021/04/29 05:07:39;;;;;;;;;;;20.80;40.90;;;;;;466895;255;1156;-72
2021/04/29 05:09:42;;;;;;;;;;;20.80;40.90;;;;;;463240;254;1152;-72
2021/04/29 05:11:41;;;;;;;;;;;20.80;41.00;;;;;;458605;256;1356;-72
2021/04/29 05:13:43;;;;;;;;;;;20.80;41.00;;;;;;462853;257;1051;-72
2021/04/29 05:15:44;;;;;;;;;;;20.80;41.00;;;;;;466873;255;1197;-72
2021/04/29 05:17:45;;;;;;;;;;;20.80;40.80;;;;;;463269;257;1188;-72
2021/04/29 05:19:46;;;;;;;;;;;20.90;40.70;;;;;;459000;259;984;-72
2021/04/29 05:21:48;;;;;;;;;;;21.00;40.60;;;;;;462931;257;1242;-72
2021/04/29 05:23:51;;;;;;;;;;;21.00;40.60;;;;;;466969;255;1031;-72
2021/04/29 05:25:52;;;;;;;;;;;21.00;40.70;;;;;;463306;255;2225;-72
2021/04/29 05:27:53;;;;;;;;;;;21.00;40.70;;;;;;458865;259;1072;-72
2021/04/29 05:29:54;;;;;;;;;;;20.90;40.80;;;;;;463025;257;1145;-72
2021/04/29 05:31:56;;;;;;;;;;;21.00;40.80;;;;;;466957;252;1237;-72
2021/04/29 05:33:57;;;;;;;;;;;21.00;40.90;;;;;;463031;257;1066;-72
2021/04/29 05:35:58;;;;;;;;;;;20.90;40.80;;;;;;466940;255;1135;-72
2021/04/29 05:37:59;;;;;;;;;;;21.00;41.00;;;;;;463216;255;1027;-72
2021/04/29 05:40:01;;;;;;;;;;;20.90;40.90;;;;;;458882;259;995;-72
2021/04/29 05:42:02;;;;;;;;;;;21.00;40.90;;;;;;462874;257;1074;-72
2021/04/29 05:44:03;;;;;;;;;;;21.00;40.90;;;;;;466911;255;1026;-72
2021/04/29 05:46:05;;;;;;;;;;;21.00;40.90;;;;;;458877;258;2162;-72
2021/04/29 05:48:06;;;;;;;;;;;21.00;40.80;;;;;;463116;257;1104;-72
2021/04/29 05:50:07;;;;;;;;;;;21.00;40.90;;;;;;463229;257;1039;-72
2021/04/29 05:52:08;;;;;;;;;;;21.00;40.90;;;;;;462855;257;1177;-72
2021/04/29 05:54:10;;;;;;;;;;;20.90;41.00;;;;;;466798;255;1074;-72
2021/04/29 05:56:14;;;;;;;;;;;20.90;40.90;;;;;;458789;257;1213;-72
2021/04/29 05:58:12;;;;;;;;;;;21.00;40.80;;;;;;462721;257;1432;-72
2021/04/29 06:00:14;;;;;;;;;;;21.00;40.80;;;;;;466888;255;1181;-72
2021/04/29 06:02:15;;;;;;;;;;;21.00;40.80;;;;;;458698;258;1170;-72
2021/04/29 06:04:17;;;;;;;;;;;21.00;40.80;;;;;;462764;257;974;-72
2021/04/29 06:06:17;;;;;;;;;;;20.90;41.00;;;;;;466789;255;2138;-73
2021/04/29 06:08:19;;;;;;;;;;;20.90;41.10;;;;;;458787;258;1068;-72
2021/04/29 06:10:20;;;;;;;;;;;21.00;41.10;;;;;;462789;257;1414;-73
2021/04/29 06:12:21;;;;;;;;;;;21.00;41.10;;;;;;466853;255;1058;-73
2021/04/29 06:14:23;;;;;;;;;;;20.90;41.10;;;;;;458733;258;1084;-73
2021/04/29 06:16:24;;;;;;;;;;;21.00;41.00;;;;;;462965;254;1235;-73
2021/04/29 06:18:25;;;;;;;;;;;21.10;40.90;;;;;;458745;259;1249;-72
2021/04/29 06:20:26;;;;;;;;;;;21.00;40.90;;;;;;462710;257;1216;-72
2021/04/29 06:22:28;;;;;;;;;;;21.00;41.00;;;;;;466804;255;1047;-73
2021/04/29 06:24:29;;;;;;;;;;;21.00;41.00;;;;;;462926;257;1103;-73
2021/04/29 06:26:31;;;;;;;;;;;21.00;40.90;;;;;;462950;257;2187;-73
2021/04/29 06:28:33;;;;;;;;;;;21.00;41.00;;;;;;458578;260;1248;-73
2021/04/29 06:30:33;;;;;;;;;;;21.00;41.00;;;;;;462454;257;1454;-72
2021/04/29 06:32:34;;;;;;;;;;;21.10;40.70;;;;;;466709;255;1066;-73
2021/04/29 06:34:36;;;;;;;;;;;21.00;40.80;;;;;;458509;258;992;-73
2021/04/29 06:36:37;;;;;;;;;;;21.00;40.90;;;;;;462537;257;1561;-73
2021/04/29 06:38:38;;;;;;;;;;;21.00;40.90;;;;;;466729;255;1132;-73
2021/04/29 06:40:39;;;;;;;;;;;21.00;40.90;;;;;;462917;257;1129;-73
2021/04/29 06:42:41;;;;;;;;;;;21.00;40.80;;;;;;462648;256;1044;-73
2021/04/29 06:44:42;;;;;;;;;;;21.00;40.80;;;;;;466643;255;1058;-73
2021/04/29 06:46:45;;;;;;;;;;;21.00;40.70;;;;;;458504;259;2190;-72
2021/04/29 06:48:45;;;;;;;;;;;21.00;40.70;;;;;;462323;257;1370;-73
2021/04/29 06:50:46;;;;;;;;;;;21.00;40.60;;;;;;466515;251;1296;-72
2021/04/29 06:52:47;;;;;;;;;;;21.00;40.70;;;;;;462770;257;1129;-72
2021/04/29 06:54:48;;;;;;;;;;;21.00;40.70;;;;;;458466;257;1172;-73
2021/04/29 06:56:50;;;;;;;;;;;21.00;40.60;;;;;;462434;257;1143;-73
2021/04/29 06:58:51;;;;;;;;;;;21.00;40.70;;;;;;466412;255;1278;-73
2021/04/29 07:00:52;;;;;;;;;;;20.90;40.70;;;;;;458375;258;1166;-73
2021/04/29 07:02:56;;;;;;;;;;;20.90;40.70;;;;;;462528;257;1311;-73
2021/04/29 07:04:56;;;;;;;;;;;20.90;40.80;;;;;;466518;255;1424;-73
2021/04/29 07:06:57;;;;;;;;;;;20.90;40.80;;;;;;458573;258;2169;-72
2021/04/29 07:08:59;;;;;;;;;;;20.90;40.80;;;;;;462951;255;995;-73
2021/04/29 07:11:00;;;;;;;;;;;20.90;40.70;;;;;;458510;259;1280;-72
2021/04/29 07:13:01;;;;;;;;;;;21.00;40.70;;;;;;462564;257;1331;-72
2021/04/29 07:15:03;;;;;;;;;;;20.90;40.70;;;;;;466673;255;1048;-73
2021/04/29 07:17:04;;;;;;;;;;;20.90;40.70;;;;;;462918;253;1238;-73
2021/04/29 07:19:05;;;;;;;;;;;21.00;40.60;;;;;;458554;259;1114;-73
2021/04/29 07:21:06;;;;;;;;;;;21.00;40.60;;;;;;462518;257;1132;-73
2021/04/29 07:23:08;;;;;;;;;;;21.00;40.50;;;;;;466618;255;1106;-73
2021/04/29 07:25:09;;;;;;;;;;;20.90;40.50;;;;;;458433;258;2194;-73
2021/04/29 07:27:10;;;;;;;;;;;21.00;40.50;;;;;;462302;254;1280;-73
2021/04/29 07:29:12;;;;;;;;;;;20.90;40.50;;;;;;466470;255;1233;-73
2021/04/29 07:31:13;;;;;;;;;;;20.90;40.60;;;;;;458430;259;1187;-73
2021/04/29 07:33:16;;;;;;;;;;;20.90;40.60;;;;;;462517;257;1050;-72
2021/04/29 07:35:15;;;;;;;;;;;20.90;40.50;;;;;;466521;254;1425;-73
2021/04/29 07:37:17;;;;;;;;;;;20.90;40.50;;;;;;458607;259;1121;-73
2021/04/29 07:39:18;;;;;;;;;;;20.90;40.50;;;;;;462477;257;1058;-73
2021/04/29 07:41:23;;;;;;;;;;;20.90;40.50;;;;;;466400;253;1207;-73
2021/04/29 07:43:21;;;;;;;;;;;20.80;40.60;;;;;;458323;259;1351;-72
2021/04/29 07:45:22;;;;;;;;;;;20.80;40.50;;;;;;462471;257;2207;-73
2021/04/29 07:47:23;;;;;;;;;;;20.80;40.70;;;;;;466508;252;1159;-73
2021/04/29 07:49:25;;;;;;;;;;;20.80;40.70;;;;;;458492;258;1061;-72
2021/04/29 07:51:26;;;;;;;;;;;20.80;40.60;;;;;;462410;250;1181;-73
2021/04/29 07:53:27;;;;;;;;;;;20.70;40.60;;;;;;466721;255;1050;-73
2021/04/29 07:55:29;;;;;;;;;;;20.70;40.70;;;;;;458462;258;1132;-73
2021/04/29 07:57:30;;;;;;;;;;;20.70;40.70;;;;;;462388;257;1141;-73
2021/04/29 07:59:31;;;;;;;;;;;20.70;40.70;;;;;;466473;255;1099;-73
2021/04/29 08:01:33;;;;;;;;;;;20.70;40.70;;;;;;462849;256;1547;-73
2021/04/29 08:03:34;;;;;;;;;;;20.60;40.70;;;;;;458406;257;1393;-73
2021/04/29 08:05:35;;;;;;;;;;;20.60;40.60;;;;;;462482;257;2195;-73
2021/04/29 08:07:37;;;;;;;;;;;20.60;40.80;;;;;;466905;252;1106;-73
2021/04/29 08:09:38;;;;;;;;;;;20.60;40.60;;;;;;462440;257;1279;-73
2021/04/29 08:11:39;;;;;;;;;;;20.70;40.60;;;;;;466303;255;1186;-73
2021/04/29 08:13:41;;;;;;;;;;;20.70;40.40;;;;;;458259;253;1149;-73
2021/04/29 08:15:42;;;;;;;;;;;20.70;40.30;;;;;;462339;257;1305;-72
2021/04/29 08:17:43;;;;;;;;;;;20.70;40.30;;;;;;466718;255;1389;-73
2021/04/29 08:19:45;;;;;;;;;;;20.70;40.30;;;;;;458410;258;1315;-73
2021/04/29 08:21:46;;;;;;;;;;;20.60;40.30;;;;;;462536;250;1338;-73
2021/04/29 08:23:48;;;;;;;;;;;20.60;40.40;;;;;;466521;255;1151;-73
2021/04/29 08:25:50;;;;;;;;;;;20.70;40.40;;;;;;458391;257;2146;-73
2021/04/29 08:27:50;;;;;;;;;;;20.70;40.30;;;;;;462517;257;1494;-73
2021/04/29 08:29:51;;;;;;;;;;;20.70;40.30;;;;;;466575;255;1279;-73
2021/04/29 08:31:53;;;;;;;;;;;20.60;40.30;;;;;;462864;255;1343;-73
2021/04/29 08:33:54;;;;;;;;;;;20.60;40.20;;;;;;458477;259;1086;-73
2021/04/29 08:35:55;;;;;;;;;;;20.60;40.20;;;;;;462487;257;1082;-73
2021/04/29 08:37:56;;;;;;;;;;;20.50;40.30;;;;;;466581;255;1149;-73
2021/04/29 08:39:58;;;;;;;;;;;20.50;40.40;;;;;;458411;258;1078;-73
2021/04/29 08:41:59;;;;;;;;;;;20.60;40.30;;;;;;462486;257;1480;-73
2021/04/29 08:44:00;;;;;;;;;;;20.50;40.40;;;;;;466442;255;1065;-73
2021/04/29 08:46:02;;;;;;;;;;;20.60;40.30;;;;;;458226;259;2209;-73
2021/04/29 08:48:03;;;;;;;;;;;20.60;40.20;;;;;;462160;257;1180;-71
2021/04/29 08:50:04;;;;;;;;;;;20.50;40.20;;;;;;466530;255;1050;-73
2021/04/29 08:52:05;;;;;;;;;;;20.60;40.10;;;;;;462806;257;1225;-73
2021/04/29 08:54:07;;;;;;;;;;;20.60;40.00;;;;;;462619;257;1103;-73
2021/04/29 08:56:08;;;;;;;;;;;20.60;39.90;;;;;;466528;253;1208;-73
2021/04/29 08:58:09;;;;;;;;;;;20.50;39.90;;;;;;458367;258;1102;-73
2021/04/29 09:00:11;;;;;;;;;;;20.50;40.10;;;;;;462640;257;1100;-73
2021/04/29 09:02:12;;;;;;;;;;;20.50;40.00;;;;;;466637;252;1155;-73
2021/04/29 09:04:14;;;;;;;;;;;20.60;40.00;;;;;;462855;255;1060;-73
2021/04/29 09:06:14;;;;;;;;;;;20.50;40.00;;;;;;458403;260;2206;-73
2021/04/29 09:08:16;;;;;;;;;;;20.50;39.90;;;;;;462588;257;1199;-73
2021/04/29 09:10:17;;;;;;;;;;;20.50;39.90;;;;;;466620;255;1092;-73
2021/04/29 09:12:19;;;;;;;;;;;20.60;39.70;;;;;;458528;258;1089;-73
2021/04/29 09:14:20;;;;;;;;;;;20.60;39.80;;;;;;462539;257;1363;-73
2021/04/29 09:16:21;;;;;;;;;;;20.60;39.70;;;;;;466436;252;1442;-73
2021/04/29 09:18:22;;;;;;;;;;;20.60;39.70;;;;;;458599;258;1299;-73
2021/04/29 09:20:23;;;;;;;;;;;20.60;39.70;;;;;;462575;257;1062;-73
2021/04/29 09:22:25;;;;;;;;;;;20.50;39.60;;;;;;466631;255;1123;-73
2021/04/29 09:24:26;;;;;;;;;;;20.60;39.50;;;;;;458523;259;1037;-73
2021/04/29 09:26:27;;;;;;;;;;;20.60;39.40;;;;;;462653;257;2231;-73
2021/04/29 09:28:29;;;;;;;;;;;20.70;39.30;;;;;;466602;255;1197;-73
2021/04/29 09:30:30;;;;;;;;;;;20.60;39.20;;;;;;458480;258;1062;-73
2021/04/29 09:32:31;;;;;;;;;;;20.70;39.30;;;;;;462759;256;1163;-73
2021/04/29 09:34:32;;;;;;;;;;;20.70;39.00;;;;;;458442;259;1064;-73
2021/04/29 09:36:34;;;;;;;;;;;20.70;39.10;;;;;;462875;257;1431;-72
2021/04/29 09:38:35;;;;;;;;;;;20.60;39.10;;;;;;462946;257;1083;-72
2021/04/29 09:40:39;;;;;;;;;;;20.70;39.10;;;;;;462598;257;1134;-73
2021/04/29 09:42:38;;;;;;;;;;;20.70;39.00;;;;;;466513;252;1405;-72
2021/04/29 09:44:39;;;;;;;;;;;20.70;39.00;;;;;;458660;259;1219;-72
2021/04/29 09:46:40;;;;;;;;;;;20.70;38.80;;;;;;462624;257;2191;-72
2021/04/29 09:48:42;;;;;;;;;;;20.60;38.90;;;;;;466690;255;1172;-73
2021/04/29 09:50:43;;;;;;;;;;;20.70;38.90;;;;;;462978;254;1313;-72
2021/04/29 09:52:44;;;;;;;;;;;20.60;38.90;;;;;;458779;257;1069;-72
2021/04/29 09:54:45;;;;;;;;;;;20.60;38.90;;;;;;462570;257;1088;-73
2021/04/29 09:56:47;;;;;;;;;;;20.60;39.00;;;;;;466630;255;1132;-73
2021/04/29 09:58:54;;;;;;;;;;;20.60;39.10;;;;;;458722;258;1113;-73
2021/04/29 10:00:50;;;;;;;;;;;20.50;39.00;;;;;;462219;257;1373;-72
2021/04/29 10:02:51;;;;;;;;;;;20.60;38.90;;;;;;466719;255;1209;-72
2021/04/29 10:04:52;;;;;;;;;;;20.60;38.70;;;;;;462962;255;1022;-72
2021/04/29 10:06:54;;;;;;;;;;;20.60;38.70;;;;;;458400;260;2193;-72
2021/04/29 10:08:55;;;;;;;;;;;20.60;38.70;;;;;;462547;257;1085;-73
2021/04/29 10:10:56;;;;;;;;;;;20.60;38.60;;;;;;466535;255;1291;-73
2021/04/29 10:12:58;;;;;;;;;;;20.60;38.60;;;;;;458506;259;1160;-72
2021/04/29 10:14:59;;;;;;;;;;;20.70;38.50;;;;;;462768;255;1044;-73
2021/04/29 10:17:00;;;;;;;;;;;20.60;38.40;;;;;;462430;258;1148;-71
2021/04/29 10:19:02;;;;;;;;;;;20.70;38.50;;;;;;466739;255;1327;-71
2021/04/29 10:21:03;;;;;;;;;;;20.80;38.30;;;;;;458569;258;1126;-74
2021/04/29 10:23:04;;;;;;;;;;;20.90;38.10;;;;;;462310;257;1083;-73
2021/04/29 10:25:06;;;;;;;;;;;21.20;37.60;;;;;;466275;255;1348;-75
2021/04/29 10:27:07;;;;;;;;;;;21.10;37.60;;;;;;462270;257;2155;-73
2021/04/29 10:29:08;;;;;;;;;;;20.90;37.90;;;;;;466414;255;1123;-73
2021/04/29 10:31:09;;;;;;;;;;;20.80;37.90;;;;;;457982;258;1224;-73
2021/04/29 10:33:11;;;;;;;;;;;20.80;37.90;;;;;;462179;257;1247;-72
2021/04/29 10:35:12;;;;;;;;;;;20.70;38.10;;;;;;466263;255;1095;-72
2021/04/29 10:37:13;;;;;;;;;;;20.60;38.20;;;;;;462553;257;1303;-72
2021/04/29 10:39:15;;;;;;;;;;;20.60;38.40;;;;;;458168;259;1095;-73
2021/04/29 10:41:16;;;;;;;;;;;20.60;38.40;;;;;;462106;257;1325;-73
2021/04/29 10:43:17;;;;;;;;;;;20.60;38.40;;;;;;466384;255;1017;-73
2021/04/29 10:45:18;;;;;;;;;;;20.60;38.40;;;;;;458143;258;1048;-72
2021/04/29 10:47:20;;;;;;;;;;;20.40;38.40;;;;;;462180;257;2198;-72
2021/04/29 10:49:21;;;;;;;;;;;20.50;38.50;;;;;;466341;255;1217;-72
2021/04/29 10:51:23;;;;;;;;;;;20.50;38.40;;;;;;458229;258;1177;-72
2021/04/29 10:53:24;;;;;;;;;;;20.50;38.30;;;;;;462252;257;1064;-72
2021/04/29 10:55:25;;;;;;;;;;;20.50;38.20;;;;;;466195;255;1141;-72
2021/04/29 10:57:26;;;;;;;;;;;20.50;38.20;;;;;;462364;257;1143;-72
2021/04/29 10:59:27;;;;;;;;;;;20.50;38.20;;;;;;458250;259;1051;-72
2021/04/29 11:01:29;;;;;;;;;;;20.50;38.20;;;;;;462110;257;1154;-72
2021/04/29 11:03:30;;;;;;;;;;;20.40;38.20;;;;;;466115;255;1198;-73
2021/04/29 11:05:31;;;;;;;;;;;20.50;38.20;;;;;;457898;259;1115;-73
2021/04/29 11:07:32;;;;;;;;;;;20.40;38.20;;;;;;462123;257;2199;-72
2021/04/29 11:09:34;;;;;;;;;;;20.40;38.10;;;;;;466082;255;1025;-72
2021/04/29 11:11:35;;;;;;;;;;;20.40;38.10;;;;;;457969;259;1334;-72
2021/04/29 11:13:36;;;;;;;;;;;20.50;38.00;;;;;;462096;257;1201;-72
2021/04/29 11:15:38;;;;;;;;;;;20.40;37.90;;;;;;466185;255;1071;-72
2021/04/29 11:17:39;;;;;;;;;;;20.40;38.00;;;;;;458070;258;1108;-72
2021/04/29 11:19:40;;;;;;;;;;;20.40;37.90;;;;;;461883;257;1179;-72
2021/04/29 11:21:41;;;;;;;;;;;20.40;37.90;;;;;;465880;255;1173;-72
2021/04/29 11:23:44;;;;;;;;;;;20.40;37.70;;;;;;462249;254;1138;-72
2021/04/29 11:25:44;;;;;;;;;;;20.50;37.70;;;;;;457843;259;1429;-73
2021/04/29 11:27:45;;;;;;;;;;;20.50;37.70;;;;;;462030;257;2207;-72
2021/04/29 11:29:46;;;;;;;;;;;20.50;37.60;;;;;;466013;255;1069;-71
2021/04/29 11:31:48;;;;;;;;;;;20.50;37.60;;;;;;457800;258;1132;-72
2021/04/29 11:33:49;;;;;;;;;;;20.50;37.60;;;;;;462000;257;1127;-72
2021/04/29 11:35:50;;;;;;;;;;;20.60;37.40;;;;;;465986;255;1100;-72
2021/04/29 11:37:52;;;;;;;;;;;20.60;37.40;;;;;;458102;259;1115;-73
2021/04/29 11:39:53;;;;;;;;;;;20.60;37.50;;;;;;462221;257;994;-76
2021/04/29 11:41:54;;;;;;;;;;;20.50;37.50;;;;;;466153;255;1078;-71
2021/04/29 11:43:55;;;;;;;;;;;20.50;37.60;;;;;;458008;259;1058;-72
2021/04/29 11:45:57;;;;;;;;;;;20.50;37.50;;;;;;461903;257;1315;-72
2021/04/29 11:47:58;;;;;;;;;;;20.50;37.40;;;;;;466003;255;2193;-71
2021/04/29 11:49:59;;;;;;;;;;;20.60;37.30;;;;;;457901;258;1331;-72
2021/04/29 11:52:01;;;;;;;;;;;20.60;37.30;;;;;;461981;257;1402;-72
2021/04/29 11:54:02;;;;;;;;;;;20.60;37.20;;;;;;466154;255;1084;-72
2021/04/29 11:56:04;;;;;;;;;;;20.60;37.10;;;;;;458047;258;1158;-71